Time;durP1;ratioP1;P1;durP2;ratioP2;P2;SDS_P1;SDS_P2;PMS_P1;PMS_P2;Temp;Humidity;BMP_temperature;BMP_pressure;BME280_temperature;BME280_humidity;BME280_pressure;Samples;Min_cycle;Max_cycle;Signal;HPM_P1;HPM_P2
2021/01/04 00:02:37;;;;;;;25.97;12.73;;;;;;;2.16;83.03;100303.33;1706963;83;21143;-64
2021/01/04 00:05:36;;;;;;;24.40;13.40;;;;;;;2.18;83.04;100297.58;1711064;83;21120;-60
2021/01/04 00:08:33;;;;;;;25.33;14.97;;;;;;;2.23;83.05;100297.09;1706223;81;21612;-63
2021/01/04 00:11:39;;;;;;;28.77;15.07;;;;;;;2.26;83.00;100298.86;1702641;83;21695;-62
2021/01/04 00:14:25;;;;;;;;;;;;;;;2.25;83.02;100292.66;1707573;82;21238;-59
2021/01/04 00:17:10;;;;;;;26.63;14.53;;;;;;;2.24;83.00;100290.00;1702895;83;20324;-61
2021/01/04 00:20:08;;;;;;;;;;;;;;;2.22;83.04;100293.99;1707199;83;22073;-60
2021/01/04 00:23:00;;;;;;;23.73;11.47;;;;;;;2.22;83.03;100290.45;1704685;82;20320;-61
2021/01/04 00:25:45;;;;;;;23.10;10.67;;;;;;;2.20;83.06;100290.94;1706126;82;22234;-61
2021/01/04 00:28:17;;;;;;;20.68;10.50;;;;;;;2.19;83.12;100300.67;1711834;83;21716;-60
2021/01/04 00:31:01;;;;;;;20.97;10.73;;;;;;;2.21;83.13;100294.03;1707749;82;21148;-61
2021/01/04 00:33:35;;;;;;;;;;;;;;;2.24;83.21;100298.86;1696793;83;21195;-61
2021/01/04 00:36:07;;;;;;;25.87;13.30;;;;;;;2.29;83.20;100289.55;1686024;83;20284;-60
2021/01/04 00:39:04;;;;;;;26.73;13.60;;;;;;;2.31;83.15;100290.84;1673968;84;22074;-61
2021/01/04 00:42:04;;;;;;;19.97;11.97;;;;;;;2.33;83.13;100290.39;1686602;82;21163;-60
2021/01/04 00:44:46;;;;;;;20.43;11.43;;;;;;;2.31;83.08;100287.73;1698454;82;21554;-61
2021/01/04 00:47:19;;;;;;;21.77;11.57;;;;;;;2.33;83.12;100290.39;1694055;82;21164;-60
2021/01/04 00:49:47;;;;;;;20.37;11.37;;;;;;;2.36;83.09;100296.58;1701113;81;21161;-61
2021/01/04 00:52:44;;;;;;;21.10;10.23;;;;;;;2.37;83.06;100294.81;1680014;82;21903;-60
2021/01/04 00:55:38;;;;;;;18.30;10.87;;;;;;;2.38;83.10;100294.80;1710508;81;21650;-61
2021/01/04 00:58:22;;;;;;;20.17;11.27;;;;;;;2.41;83.05;100297.42;1689786;83;21202;-59
2021/01/04 01:00:53;;;;;;;20.90;11.70;;;;;;;2.44;83.05;100305.39;1706197;83;27170;-61
2021/01/04 01:03:58;;;;;;;22.23;10.40;;;;;;;2.44;83.01;100301.40;1703378;81;21175;-60
2021/01/04 01:06:44;;;;;;;19.73;10.95;;;;;;;2.43;82.94;100300.08;1651261;83;21419;-60
2021/01/04 01:09:11;;;;;;;18.77;10.70;;;;;;;2.43;82.94;100296.09;1680420;83;21201;-62
2021/01/04 01:11:53;;;;;;;15.13;9.00;;;;;;;2.41;82.88;100293.44;1721949;81;21164;-61
2021/01/04 01:14:51;;;;;;;15.57;8.33;;;;;;;2.39;82.88;100300.53;1714273;81;21192;-60
2021/01/04 01:17:40;;;;;;;13.43;8.43;;;;;;;2.40;82.89;100288.13;1717814;81;21137;-61
2021/01/04 01:20:12;;;;;;;16.03;9.43;;;;;;;2.43;82.91;100286.34;1704176;81;21554;-61
2021/01/04 01:22:40;;;;;;;15.83;8.93;;;;;;;2.44;82.93;100282.80;1721108;81;21173;-62
2021/01/04 01:25:19;;;;;;;15.20;9.57;;;;;;;2.46;82.92;100282.80;1722144;81;21504;-61
2021/01/04 01:28:06;;;;;;;13.73;8.93;;;;;;;2.48;82.91;100283.64;1722503;81;21645;-60
2021/01/04 01:31:09;;;;;;;17.73;9.60;;;;;;;2.47;82.89;100288.52;1719973;81;21519;-58
2021/01/04 01:34:06;;;;;;;14.47;8.10;;;;;;;2.48;82.82;100284.52;1717109;81;21667;-59
2021/01/04 01:37:12;;;;;;;12.83;7.00;;;;;;;2.50;82.81;100287.17;1698843;82;21224;-61
2021/01/04 01:40:17;;;;;;;12.03;7.17;;;;;;;2.51;82.77;100291.60;1702360;82;21204;-62
2021/01/04 01:43:11;;;;;;;14.90;9.10;;;;;;;2.52;82.71;100290.72;1692807;82;21235;-61
2021/01/04 01:45:56;;;;;;;20.35;10.10;;;;;;;2.54;82.74;100288.94;1690141;84;21195;-61
2021/01/04 01:48:53;;;;;;;14.90;8.80;;;;;;;2.53;82.70;100292.48;1691253;83;21807;-62
2021/01/04 01:51:47;;;;;;;13.03;7.30;;;;;;;2.51;82.69;100296.91;1690494;84;21488;-62
2021/01/04 01:54:48;;;;;;;14.67;8.40;;;;;;;2.50;82.69;100299.13;1689167;84;21556;-60
2021/01/04 01:57:51;;;;;;;14.00;7.67;;;;;;;2.49;82.71;100292.05;1686932;84;22007;-62
2021/01/04 02:00:57;;;;;;;13.13;8.43;;;;;;;2.50;82.72;100291.16;1689519;84;21228;-61
2021/01/04 02:03:56;;;;;;;13.47;7.70;;;;;;;2.51;82.68;100288.95;1717275;81;21374;-63
2021/01/04 02:06:47;;;;;;;11.67;8.03;;;;;;;2.53;82.71;100287.17;1720272;81;21216;-63
2021/01/04 02:09:23;;;;;;;14.30;8.63;;;;;;;2.56;82.69;100285.80;1717152;81;22129;-61
2021/01/04 02:12:21;;;;;;;10.70;7.67;;;;;;;2.56;82.66;100284.02;1700978;82;21530;-60
2021/01/04 02:15:19;;;;;;;10.00;7.67;;;;;;;2.55;82.63;100282.73;1677878;83;21525;-60
2021/01/04 02:17:58;;;;;;;13.43;8.53;;;;;;;2.53;82.65;100281.41;1682401;83;22163;-60
2021/01/04 02:21:19;;;;;;;11.37;7.50;;;;;;;2.51;82.64;100279.64;1679552;83;21698;-60
2021/01/04 02:24:13;;;;;;;12.33;7.00;;;;;;;2.51;82.62;100284.95;1679662;83;22073;-61
2021/01/04 02:29:15;;;;;;;10.53;6.50;;;;;;;2.56;82.75;100281.80;1867673;75;26633;-58
2021/01/04 02:31:46;;;;;;;12.23;7.23;;;;;;;2.52;82.75;100283.63;1786257;78;21083;-60
2021/01/04 02:34:15;;;;;;;13.27;7.87;;;;;;;2.52;82.80;100278.75;1809520;77;21374;-59
2021/01/04 02:36:46;;;;;;;11.40;7.80;;;;;;;2.53;82.81;100283.18;1804630;77;21007;-58
2021/01/04 02:39:16;;;;;;;12.17;8.13;;;;;;;2.53;82.81;100287.17;1811759;77;21389;-59
2021/01/04 02:42:13;;;;;;;14.43;8.47;;;;;;;2.56;82.79;100293.77;1803760;77;21146;-60
2021/01/04 02:44:42;;;;;;;12.03;7.20;;;;;;;2.56;82.81;100296.42;1805006;78;21090;-60
2021/01/04 02:47:18;;;;;;;11.23;6.07;;;;;;;2.58;82.82;100298.19;1778322;79;21757;-60
2021/01/04 02:49:56;;;;;;;12.03;6.90;;;;;;;2.61;82.87;100299.95;1803221;77;20977;-60
2021/01/04 02:52:52;;;;;;;9.87;7.40;;;;;;;2.64;82.85;100304.78;1779227;79;20989;-60
2021/01/04 02:55:43;;;;;;;13.03;8.60;;;;;;;2.67;82.83;100307.87;1776176;78;21156;-60
2021/01/04 02:58:51;;;;;;;11.87;7.67;;;;;;;2.67;82.75;100299.89;1804497;77;21468;-60
2021/01/04 03:01:40;;;;;;;14.60;8.23;;;;;;;2.67;82.73;100290.59;1771652;79;22128;-60
2021/01/04 03:04:11;;;;;;;10.00;7.27;;;;;;;2.68;82.69;100290.14;1780444;78;21175;-60
2021/01/04 03:06:59;;;;;;;10.93;6.67;;;;;;;2.70;82.68;100292.35;1777107;78;21110;-61
2021/01/04 03:09:28;;;;;;;9.70;6.23;;;;;;;2.70;82.68;100301.21;1776396;79;21151;-62
2021/01/04 03:11:56;;;;;;;11.57;7.47;;;;;;;2.73;82.65;100302.94;1779636;79;21489;-60
2021/01/04 03:14:35;;;;;;;9.33;6.37;;;;;;;2.74;82.65;100308.70;1780133;79;22076;-60
2021/01/04 03:17:26;;;;;;;9.57;6.90;;;;;;;2.74;82.64;100302.05;1771785;79;21175;-60
2021/01/04 03:19:57;;;;;;;13.00;7.47;;;;;;;2.73;82.61;100298.95;1698149;79;21230;-60
2021/01/04 03:22:24;;;;;;;12.03;7.30;;;;;;;2.71;82.63;100292.34;1778333;79;22481;-61
2021/01/04 03:24:52;;;;;;;15.10;8.40;;;;;;;2.72;82.61;100287.47;1803332;77;21155;-60
2021/01/04 03:27:31;;;;;;;12.77;6.43;;;;;;;2.72;82.64;100282.59;1805403;77;21382;-60
2021/01/04 03:29:58;;;;;;;11.77;6.60;;;;;;;2.74;82.69;100284.77;1780320;78;21477;-60
2021/01/04 03:32:26;;;;;;;11.00;7.57;;;;;;;2.74;82.68;100292.30;1778536;78;21490;-60
2021/01/04 03:34:54;;;;;;;13.87;7.20;;;;;;;2.74;82.69;100286.98;1804438;77;21174;-60
2021/01/04 03:37:21;;;;;;;11.67;7.30;;;;;;;2.74;82.71;100294.08;1780672;79;21187;-60
2021/01/04 03:39:49;;;;;;;13.77;7.60;;;;;;;2.74;82.74;100296.73;1805680;77;21708;-60
2021/01/04 03:42:16;;;;;;;12.27;7.00;;;;;;;2.73;82.71;100283.88;1778171;78;21190;-61
2021/01/04 03:44:43;;;;;;;13.03;7.30;;;;;;;2.76;82.72;100281.22;1777453;79;21178;-60
2021/01/04 03:47:10;;;;;;;8.33;5.50;;;;;;;2.77;82.71;100276.78;1777567;78;21628;-60
2021/01/04 03:49:38;;;;;;;9.70;6.37;;;;;;;2.79;82.72;100270.56;1778020;79;21199;-61
2021/01/04 03:52:05;;;;;;;13.10;7.63;;;;;;;2.80;82.73;100270.13;1769289;79;21229;-60
2021/01/04 03:54:32;;;;;;;12.43;7.57;;;;;;;2.78;82.74;100272.78;1743822;80;21202;-60
2021/01/04 03:56:59;;;;;;;13.47;7.23;;;;;;;2.79;82.77;100277.66;1776819;78;21527;-61
2021/01/04 03:59:27;;;;;;;13.77;7.90;;;;;;;2.78;82.80;100290.52;1806291;77;21454;-60
2021/01/04 04:01:55;;;;;;;13.63;6.87;;;;;;;2.78;82.75;100278.55;1789903;78;21115;-61
2021/01/04 04:04:24;;;;;;;10.03;6.07;;;;;;;2.77;82.76;100270.14;1807455;77;21256;-60
2021/01/04 04:06:51;;;;;;;9.93;5.57;;;;;;;2.77;82.82;100262.16;1810197;77;21186;-60
2021/01/04 04:09:20;;;;;;;12.90;6.73;;;;;;;2.76;82.81;100259.95;1778785;79;21186;-60
2021/01/04 04:11:48;;;;;;;10.20;5.73;;;;;;;2.78;82.84;100266.14;1809053;77;21569;-60
2021/01/04 04:14:15;;;;;;;9.40;6.33;;;;;;;2.79;82.84;100265.70;1776689;78;22066;-60
2021/01/04 04:16:43;;;;;;;11.87;6.87;;;;;;;2.77;82.83;100257.73;1810257;78;21111;-60
2021/01/04 04:19:12;;;;;;;9.07;6.30;;;;;;;2.76;82.84;100263.94;1808411;77;21670;-60
2021/01/04 04:21:39;;;;;;;10.30;6.20;;;;;;;2.75;82.84;100270.14;1780931;79;21179;-60
2021/01/04 04:24:07;;;;;;;8.30;4.77;;;;;;;2.75;82.86;100264.83;1805745;77;21179;-60
2021/01/04 04:26:34;;;;;;;9.93;6.10;;;;;;;2.75;82.87;100264.83;1809131;77;21445;-62
2021/01/04 04:29:02;;;;;;;7.87;5.07;;;;;;;2.75;82.92;100263.50;1807169;77;21229;-59
2021/01/04 04:31:29;;;;;;;12.57;5.80;;;;;;;2.76;82.92;100263.05;1785827;78;21206;-62
2021/01/04 04:33:57;;;;;;;8.03;5.20;;;;;;;2.76;82.91;100261.28;1788405;78;21476;-59
2021/01/04 04:36:27;;;;;;;8.33;4.53;;;;;;;2.76;82.94;100267.92;1789685;78;21178;-60
2021/01/04 04:38:54;;;;;;;7.90;4.53;;;;;;;2.75;82.97;100271.92;1801778;77;21154;-60
2021/01/04 04:41:32;;;;;;;11.67;5.33;;;;;;;2.74;82.98;100280.34;1777318;78;21231;-60
2021/01/04 04:44:26;;;;;;;7.03;4.30;;;;;;;2.74;83.01;100268.38;1804257;77;21726;-60
2021/01/04 04:47:27;;;;;;;8.07;4.50;;;;;;;2.75;82.97;100268.81;1781959;77;21159;-62
2021/01/04 04:50:33;;;;;;;5.87;3.83;;;;;;;2.76;83.00;100260.39;1770821;78;21603;-61
2021/01/04 04:53:29;;;;;;;7.47;4.23;;;;;;;2.77;83.05;100258.17;1771629;78;21227;-61
2021/01/04 04:56:23;;;;;;;5.90;3.50;;;;;;;2.80;83.05;100252.84;1765640;79;22251;-60
2021/01/04 04:59:28;;;;;;;6.07;3.93;;;;;;;2.81;83.04;100251.91;1773192;78;21504;-61
2021/01/04 05:02:21;;;;;;;7.67;3.10;;;;;;;2.81;83.03;100269.20;1773614;79;21123;-60
2021/01/04 05:05:08;;;;;;;4.93;3.63;;;;;;;2.78;83.03;100255.95;1803254;77;21442;-60
2021/01/04 05:07:47;;;;;;;6.50;3.60;;;;;;;2.79;83.04;100248.41;1779461;78;21179;-60
2021/01/04 05:10:24;;;;;;;6.60;3.80;;;;;;;2.80;83.00;100253.73;1800786;77;21570;-61
2021/01/04 05:13:18;;;;;;;5.67;3.30;;;;;;;2.81;83.06;100255.45;1776865;78;21160;-64
2021/01/04 05:15:57;;;;;;;4.50;3.17;;;;;;;2.83;83.07;100256.33;1791789;77;21114;-61
2021/01/04 05:18:50;;;;;;;5.43;4.00;;;;;;;2.85;83.09;100248.35;1777901;78;21099;-61
2021/01/04 05:21:37;;;;;;;6.77;4.43;;;;;;;2.83;83.12;100252.34;1765965;79;21110;-61
2021/01/04 05:24:32;;;;;;;5.70;3.63;;;;;;;2.83;83.07;100248.80;1777333;78;21446;-61
2021/01/04 05:27:53;;;;;;;4.50;3.10;;;;;;;2.82;83.07;100241.27;1801951;77;21617;-61
2021/01/04 05:30:53;;;;;;;7.27;2.77;;;;;;;2.83;83.06;100247.48;1777567;78;21126;-61
2021/01/04 05:33:40;;;;;;;6.63;3.13;;;;;;;2.84;83.14;100259.88;1790061;78;21105;-61
2021/01/04 05:36:42;;;;;;;6.40;3.23;;;;;;;2.85;83.12;100255.88;1790851;78;21091;-62
2021/01/04 05:39:24;;;;;;;7.90;3.73;;;;;;;2.88;83.14;100262.95;1790393;78;21874;-61
2021/01/04 05:42:22;;;;;;;5.33;3.57;;;;;;;2.88;83.11;100258.97;1800696;77;21116;-61
2021/01/04 05:45:15;;;;;;;5.80;3.40;;;;;;;2.85;83.07;100262.53;1776777;78;21124;-61
2021/01/04 05:48:20;;;;;;;10.83;3.53;;;;;;;2.85;83.02;100269.17;1777187;78;21154;-60
2021/01/04 05:51:04;;;;;;;5.83;3.57;;;;;;;2.85;83.05;100273.61;1750053;79;21393;-63
2021/01/04 05:53:31;;;;;;;6.62;3.15;;;;;;;2.85;83.04;100272.28;1805586;77;22083;-61
2021/01/04 05:55:59;;;;;;;5.93;3.70;;;;;;;2.86;83.07;100279.36;1780680;78;21151;-61
2021/01/04 05:58:32;;;;;;;4.60;3.17;;;;;;;2.87;83.11;100273.16;1805192;77;21522;-61
2021/01/04 06:01:16;;;;;;;6.30;3.47;;;;;;;2.87;83.08;100265.18;1778816;78;21097;-60
2021/01/04 06:03:59;;;;;;;5.20;3.70;;;;;;;2.88;83.03;100262.52;1774657;78;21152;-61
2021/01/04 06:06:50;;;;;;;6.60;3.87;;;;;;;2.88;83.03;100273.15;1776244;78;21425;-61
2021/01/04 06:09:17;;;;;;;9.07;4.33;;;;;;;2.86;83.02;100272.72;1772923;78;21723;-61
2021/01/04 06:12:06;;;;;;;5.90;4.57;;;;;;;2.84;82.99;100270.06;1776007;78;21190;-61
2021/01/04 06:14:35;;;;;;;7.40;3.87;;;;;;;2.84;83.03;100272.73;1745404;78;21788;-61
2021/01/04 06:17:08;;;;;;;7.20;3.67;;;;;;;2.84;83.07;100270.06;1772212;78;22019;-61
2021/01/04 06:19:39;;;;;;;6.53;3.00;;;;;;;2.86;83.11;100280.25;1781070;78;21910;-61
2021/01/04 06:22:16;;;;;;;5.43;3.43;;;;;;;2.89;83.15;100277.54;1779016;79;21492;-60
2021/01/04 06:24:44;;;;;;;3.80;2.57;;;;;;;2.92;83.17;100282.84;1775718;78;21126;-60
2021/01/04 06:27:34;;;;;;;4.60;3.00;;;;;;;2.93;83.15;100280.63;1775103;78;21112;-61
2021/01/04 06:30:19;;;;;;;5.13;3.43;;;;;;;2.94;83.13;100282.84;1801642;77;21198;-60
2021/01/04 06:32:47;;;;;;;;;;;;;;;2.94;83.12;100281.51;1786241;78;21380;-60
2021/01/04 06:35:28;;;;;;;4.27;2.70;;;;;;;2.95;83.09;100281.95;1787680;78;20440;-60
2021/01/04 06:38:26;;;;;;;4.40;2.77;;;;;;;2.94;83.15;100282.84;1799969;77;21198;-61
2021/01/04 06:40:54;;;;;;;7.47;2.83;;;;;;;2.94;83.16;100281.51;1785313;78;21182;-62
2021/01/04 06:43:32;;;;;;;4.13;2.37;;;;;;;2.97;83.24;100289.47;1785959;78;21750;-61
2021/01/04 06:46:19;;;;;;;5.00;2.73;;;;;;;2.98;83.23;100287.21;1797462;77;22878;-62
2021/01/04 06:49:07;;;;;;;5.33;2.50;;;;;;;2.98;83.25;100297.41;1782942;78;21846;-61
2021/01/04 06:51:43;;;;;;;9.27;3.90;;;;;;;2.98;83.27;100294.75;1783860;77;21115;-61
2021/01/04 06:54:41;;;;;;;4.23;3.53;;;;;;;2.99;83.28;100301.83;1802791;77;21468;-61
2021/01/04 06:57:20;;;;;;;4.37;2.83;;;;;;;2.99;83.30;100297.84;1787137;78;21122;-61
2021/01/04 07:00:02;;;;;;;6.63;3.63;;;;;;;3.02;83.29;100297.83;1801662;77;21436;-61
2021/01/04 07:02:59;;;;;;;5.60;3.23;;;;;;;3.06;83.31;100285.84;1783156;79;21222;-61
2021/01/04 07:05:44;;;;;;;9.13;3.40;;;;;;;3.08;83.34;100290.23;1801408;77;21492;-61
2021/01/04 07:08:21;;;;;;;;;;;;;;;3.10;83.34;100276.47;1788757;78;21206;-61
2021/01/04 07:10:59;;;;;;;6.23;3.27;;;;;;;3.12;83.32;100277.34;1784072;78;20265;-61
2021/01/04 07:14:16;;;;;;;5.73;3.37;;;;;;;3.13;83.31;100280.45;1763643;77;21415;-60
2021/01/04 07:17:18;;;;;;;11.70;6.30;;;;;;;3.12;83.28;100277.34;1789207;78;22325;-60
2021/01/04 07:19:59;;;;;;;6.27;4.10;;;;;;;3.11;83.29;100280.91;1796283;77;21552;-60
2021/01/04 07:22:51;;;;;;;9.97;4.60;;;;;;;3.10;83.33;100286.23;1735772;78;21222;-60
2021/01/04 07:25:42;;;;;;;5.33;4.20;;;;;;;3.09;83.38;100281.36;1776034;79;21237;-60
2021/01/04 07:29:01;;;;;;;4.53;3.60;;;;;;;3.09;83.46;100283.12;1774553;78;21199;-61
2021/01/04 07:31:47;;;;;;;8.77;4.80;;;;;;;3.10;83.51;100285.78;1797590;77;21222;-60
2021/01/04 07:34:27;;;;;;;6.80;4.00;;;;;;;3.11;83.56;100286.22;1733645;79;21194;-60
2021/01/04 07:37:14;;;;;;;7.57;5.00;;;;;;;3.15;83.54;100297.25;1783618;78;21162;-60
2021/01/04 07:39:52;;;;;;;9.60;5.57;;;;;;;3.16;83.50;100285.72;1775382;79;21230;-61
2021/01/04 07:42:47;;;;;;;10.57;5.60;;;;;;;3.18;83.53;100283.05;1786636;78;21214;-60
2021/01/04 07:45:43;;;;;;;10.07;5.67;;;;;;;3.17;83.49;100281.28;1777719;79;21222;-60
2021/01/04 07:48:49;;;;;;;11.50;5.87;;;;;;;3.19;83.50;100282.16;1788928;79;21644;-60
2021/01/04 07:52:08;;;;;;;10.87;5.70;;;;;;;3.21;83.59;100288.34;1740712;79;21186;-60
2021/01/04 07:54:50;;;;;;;7.53;4.97;;;;;;;3.22;83.60;100277.70;1772168;78;21199;-60
2021/01/04 07:58:01;;;;;;;8.37;5.77;;;;;;;3.26;83.64;100280.73;1800928;77;21556;-60
2021/01/04 08:00:52;;;;;;;8.93;6.23;;;;;;;3.31;83.61;100282.04;1786646;78;21233;-59
2021/01/04 08:03:55;;;;;;;9.97;6.53;;;;;;;3.34;83.63;100280.20;1801146;77;21483;-59
2021/01/04 08:06:44;;;;;;;10.23;6.37;;;;;;;3.35;83.60;100290.41;1743743;79;21191;-60
2021/01/04 08:09:43;;;;;;;10.77;5.67;;;;;;;3.36;83.51;100298.83;1800041;77;21214;-60
2021/01/04 08:12:34;;;;;;;8.23;5.13;;;;;;;3.37;83.44;100297.48;1785898;78;21368;-60
2021/01/04 08:15:36;;;;;;;11.27;5.87;;;;;;;3.39;83.52;100297.03;1775088;79;21193;-60
2021/01/04 08:18:09;;;;;;;12.57;7.43;;;;;;;3.44;83.51;100287.65;1777052;80;21150;-60
2021/01/04 08:20:43;;;;;;;9.77;5.77;;;;;;;3.46;83.42;100300.50;1780891;80;21103;-61
2021/01/04 08:23:41;;;;;;;9.37;5.27;;;;;;;3.48;83.46;100312.02;1762042;79;21091;-60
2021/01/04 08:26:38;;;;;;;9.67;6.27;;;;;;;3.49;83.46;100316.41;1782556;78;21360;-60
2021/01/04 08:29:19;;;;;;;10.17;5.80;;;;;;;3.49;83.41;100307.09;1749199;79;21504;-60
2021/01/04 08:31:52;;;;;;;10.03;6.63;;;;;;;3.53;83.46;100311.95;1749804;80;21145;-60
2021/01/04 08:34:22;;;;;;;10.57;5.83;;;;;;;3.57;83.49;100308.37;1772272;79;21134;-60
2021/01/04 08:36:57;;;;;;;8.73;6.23;;;;;;;3.60;83.51;100307.87;1781071;79;21107;-60
2021/01/04 08:39:30;;;;;;;9.20;6.70;;;;;;;3.63;83.48;100296.31;1778624;78;22373;-60
2021/01/04 08:45:07;;;;;;;11.70;7.27;;;;;;;3.69;83.32;100293.58;1795598;78;26647;-62
2021/01/04 08:47:48;;;;;;;10.77;6.67;;;;;;;3.64;83.31;100286.98;1778891;80;20981;-61
2021/01/04 08:50:27;;;;;;;10.00;5.77;;;;;;;3.68;83.33;100289.14;1685468;81;21355;-60
2021/01/04 08:53:00;;;;;;;10.50;6.67;;;;;;;3.71;83.29;100291.33;1741109;81;21021;-62
2021/01/04 08:55:32;;;;;;;9.90;6.43;;;;;;;3.73;83.30;100289.54;1738628;81;21012;-63
2021/01/04 08:58:14;;;;;;;8.47;6.70;;;;;;;3.76;83.24;100289.48;1717280;81;21267;-62
2021/01/04 09:00:41;;;;;;;10.07;6.67;;;;;;;3.77;83.20;100287.25;1744977;81;21382;-64
2021/01/04 09:03:19;;;;;;;11.17;7.47;;;;;;;3.79;83.21;100285.91;1735741;81;21283;-61
2021/01/04 09:05:47;;;;;;;11.80;7.33;;;;;;;3.81;83.22;100286.78;1740007;81;21203;-62
2021/01/04 09:08:15;;;;;;;14.60;7.70;;;;;;;3.83;83.18;100293.42;1744002;81;21195;-61
2021/01/04 09:10:48;;;;;;;9.63;6.33;;;;;;;3.84;83.09;100287.17;1715847;81;21200;-61
2021/01/04 09:13:32;;;;;;;14.40;7.83;;;;;;;3.85;83.04;100284.49;1712903;81;21549;-60
2021/01/04 09:16:31;;;;;;;12.75;7.58;;;;;;;3.88;83.01;100287.58;1743274;81;21562;-62
2021/01/04 09:19:22;;;;;;;12.47;6.67;;;;;;;3.90;83.02;100284.45;1716860;82;21751;-60
2021/01/04 09:21:49;;;;;;;12.43;8.10;;;;;;;3.93;82.97;100279.06;1717213;81;21540;-62
2021/01/04 09:24:28;;;;;;;11.80;8.17;;;;;;;3.96;82.97;100278.59;1718436;82;21254;-60
2021/01/04 09:27:00;;;;;;;10.13;7.57;;;;;;;3.98;82.93;100281.23;1720931;82;21250;-62
2021/01/04 09:29:31;;;;;;;10.07;7.33;;;;;;;3.98;82.99;100276.80;1725453;81;21219;-61
2021/01/04 09:32:08;;;;;;;11.27;7.50;;;;;;;3.99;83.04;100275.90;1722549;82;21201;-61
2021/01/04 09:34:35;;;;;;;10.77;6.07;;;;;;;4.02;82.99;100278.50;1719483;81;21215;-62
2021/01/04 09:37:07;;;;;;;7.53;6.17;;;;;;;4.05;82.96;100273.59;1719121;81;21218;-61
2021/01/04 09:39:36;;;;;;;9.57;6.67;;;;;;;4.07;82.97;100270.02;1721964;81;21563;-62
2021/01/04 09:42:06;;;;;;;10.00;6.13;;;;;;;4.09;83.00;100269.52;1673099;82;22152;-62
2021/01/04 09:44:34;;;;;;;8.70;6.00;;;;;;;4.13;82.96;100274.36;1681992;82;22303;-62
2021/01/04 09:47:06;;;;;;;11.03;6.80;;;;;;;4.15;82.90;100268.13;1681565;83;21480;-63
2021/01/04 09:49:43;;;;;;;11.17;7.13;;;;;;;4.17;82.83;100271.63;1663678;84;21216;-63
2021/01/04 09:52:33;;;;;;;11.47;8.10;;;;;;;4.16;82.75;100261.89;1650818;84;21215;-61
2021/01/04 09:55:05;;;;;;;14.73;8.10;;;;;;;4.15;82.69;100264.58;1660430;84;21401;-63
2021/01/04 09:57:32;;;;;;;10.00;7.50;;;;;;;4.12;82.75;100264.61;1727221;81;21204;-61
2021/01/04 09:59:59;;;;;;;11.00;7.43;;;;;;;4.10;82.75;100257.96;1727128;81;21766;-61
2021/01/04 10:02:30;;;;;;;9.50;6.47;;;;;;;4.10;82.80;100249.97;1700748;81;21100;-61
2021/01/04 10:05:07;;;;;;;8.03;6.07;;;;;;;4.10;82.79;100252.63;1725400;81;21105;-63
2021/01/04 10:07:34;;;;;;;10.57;5.80;;;;;;;4.13;82.84;100254.38;1723205;81;21590;-61
2021/01/04 10:10:13;;;;;;;10.23;6.57;;;;;;;4.15;82.88;100249.47;1726640;81;21188;-62
2021/01/04 10:12:40;;;;;;;12.37;7.27;;;;;;;4.18;82.91;100249.41;1722738;81;21259;-63
2021/01/04 10:15:13;;;;;;;10.97;6.77;;;;;;;4.21;82.97;100256.48;1721232;81;21180;-63
2021/01/04 10:17:43;;;;;;;11.40;7.37;;;;;;;4.22;82.84;100250.70;1724577;81;21119;-63
2021/01/04 10:20:27;;;;;;;11.37;7.03;;;;;;;4.21;82.84;100246.27;1699736;81;21642;-62
2021/01/04 10:22:55;;;;;;;12.18;7.25;;;;;;;4.21;82.83;100249.82;1726562;81;21203;-64
2021/01/04 10:25:45;;;;;;;12.87;7.10;;;;;;;4.21;82.84;100244.49;1726548;81;21747;-63
2021/01/04 10:28:14;;;;;;;12.27;7.13;;;;;;;4.22;82.88;100246.26;1721132;81;21191;-63
2021/01/04 10:30:42;;;;;;;12.37;7.60;;;;;;;4.25;82.94;100248.89;1721178;81;21219;-63
2021/01/04 10:33:26;;;;;;;13.50;8.97;;;;;;;4.27;82.99;100244.39;1723271;81;21513;-64
2021/01/04 10:36:13;;;;;;;16.30;8.37;;;;;;;4.34;83.02;100239.39;1870558;75;22988;-62
2021/01/04 10:38:44;;;;;;;16.97;9.87;;;;;;;4.33;83.00;100246.11;1847999;76;21198;-62
2021/01/04 10:41:15;;;;;;;13.10;9.40;;;;;;;4.35;83.05;100252.27;1841305;75;21186;-61
2021/01/04 10:43:44;;;;;;;16.73;10.70;;;;;;;4.36;83.07;100255.37;1755287;77;20980;-61
2021/01/04 10:46:29;;;;;;;19.13;11.90;;;;;;;4.35;83.00;100261.15;1812740;77;21482;-62
2021/01/04 10:51:40;;;;;;;15.63;9.47;;;;;;;4.39;82.83;100260.21;1870365;75;24198;-59
2021/01/04 10:54:16;;;;;;;14.90;9.33;;;;;;;4.36;82.87;100260.25;1812718;76;20985;-59
2021/01/04 10:57:13;;;;;;;17.23;10.93;;;;;;;4.37;82.88;100259.80;1843260;76;21260;-59
2021/01/04 10:59:48;;;;;;;18.00;10.37;;;;;;;4.37;82.78;100261.13;1837551;75;21211;-59
2021/01/04 11:02:15;;;;;;;20.03;12.97;;;;;;;4.34;82.70;100270.52;1842917;77;21057;-59
2021/01/04 11:04:53;;;;;;;24.40;12.03;;;;;;;4.30;82.78;100270.13;1839428;77;21198;-59
2021/01/04 11:07:30;;;;;;;24.17;12.50;;;;;;;4.30;82.78;100265.68;1843466;75;21162;-60
2021/01/04 11:10:24;;;;;;;16.77;10.60;;;;;;;4.30;82.73;100267.02;1838801;76;21442;-59
2021/01/04 11:12:55;;;;;;;18.27;10.90;;;;;;;4.29;82.70;100254.58;1845947;77;20981;-60
2021/01/04 11:15:34;;;;;;;19.00;11.27;;;;;;;4.28;82.64;100252.82;1852908;76;21587;-59
2021/01/04 11:18:12;;;;;;;19.27;11.13;;;;;;;4.27;82.63;100251.05;1846189;75;21714;-59
2021/01/04 11:20:41;;;;;;;24.60;14.43;;;;;;;4.25;82.71;100251.55;1850132;77;20943;-59
2021/01/04 11:23:14;;;;;;;21.83;12.83;;;;;;;4.24;82.76;100251.13;1839547;76;21345;-59
2021/01/04 11:25:45;;;;;;;21.97;12.87;;;;;;;4.23;82.77;100248.02;1843942;75;21154;-60
2021/01/04 11:28:13;;;;;;;22.30;13.50;;;;;;;4.25;82.76;100250.22;1845954;76;21102;-59
2021/01/04 11:30:42;;;;;;;22.27;12.97;;;;;;;4.25;82.68;100238.23;1836032;76;21091;-59
2021/01/04 11:33:14;;;;;;;24.13;13.33;;;;;;;4.25;82.67;100236.90;1844149;76;21144;-60
2021/01/04 11:35:38;;;;;;;21.30;11.97;;;;;;;4.27;82.67;100234.19;1801125;77;21407;-60
2021/01/04 11:38:06;;;;;;;26.27;14.77;;;;;;;4.28;82.61;100234.61;1774294;79;21493;-60
2021/01/04 11:40:35;;;;;;;25.93;13.83;;;;;;;4.30;82.63;100235.03;1780325;78;21138;-60
2021/01/04 11:43:02;;;;;;;35.17;19.90;;;;;;;4.30;82.62;100232.37;1761937;78;21108;-60
2021/01/04 11:45:30;;;;;;;27.30;15.97;;;;;;;4.29;82.59;100226.61;1750350;79;21555;-60
2021/01/04 11:47:59;;;;;;;26.43;14.87;;;;;;;4.29;82.54;100230.60;1751483;79;22277;-59
2021/01/04 11:50:26;;;;;;;26.80;15.63;;;;;;;4.28;82.42;100226.17;1753958;79;21659;-60
2021/01/04 11:52:56;;;;;;;25.90;15.17;;;;;;;4.28;82.47;100230.17;1750740;79;21139;-60
2021/01/04 11:55:23;;;;;;;23.77;12.93;;;;;;;4.28;82.49;100232.83;1747818;79;21134;-60
2021/01/04 11:57:51;;;;;;;21.60;12.97;;;;;;;4.30;82.47;100237.70;1748253;79;21541;-61
2021/01/04 12:00:20;;;;;;;22.73;14.03;;;;;;;4.31;82.27;100240.80;1749302;79;21424;-62
2021/01/04 12:02:47;;;;;;;24.77;12.77;;;;;;;4.31;82.30;100240.80;1748052;79;21882;-61
2021/01/04 12:05:15;;;;;;;21.00;11.90;;;;;;;4.30;82.22;100246.14;1744133;79;21532;-61
2021/01/04 12:07:43;;;;;;;22.90;14.57;;;;;;;4.28;82.19;100254.16;1746161;79;21850;-61
2021/01/04 12:10:12;;;;;;;21.00;13.17;;;;;;;4.26;82.21;100251.95;1748931;79;22124;-61
2021/01/04 12:12:40;;;;;;;20.17;12.60;;;;;;;4.27;82.19;100250.17;1746267;79;22233;-61
2021/01/04 12:15:09;;;;;;;27.30;15.33;;;;;;;4.27;82.22;100246.17;1746619;79;21218;-61
2021/01/04 12:17:36;;;;;;;27.53;15.97;;;;;;;4.28;82.28;100246.61;1747609;81;21128;-61
2021/01/04 12:20:07;;;;;;;29.40;16.20;;;;;;;4.30;82.28;100252.80;1761870;79;21143;-62
2021/01/04 12:22:34;;;;;;;27.87;16.60;;;;;;;4.32;82.33;100255.89;1718777;79;21170;-61
2021/01/04 12:25:01;;;;;;;26.23;15.40;;;;;;;4.33;82.25;100257.66;1754465;79;21313;-62
2021/01/04 12:27:29;;;;;;;25.13;14.33;;;;;;;4.32;82.19;100257.22;1741564;80;21190;-61
2021/01/04 12:29:57;;;;;;;25.83;14.17;;;;;;;4.28;82.16;100263.48;1736316;80;21621;-62
2021/01/04 12:32:24;;;;;;;24.73;14.30;;;;;;;4.27;82.18;100267.49;1758113;79;21465;-61
2021/01/04 12:34:51;;;;;;;24.37;13.70;;;;;;;4.25;82.19;100264.88;1740300;80;21526;-61
2021/01/04 12:37:18;;;;;;;22.60;12.70;;;;;;;4.25;82.29;100268.88;1741235;80;21394;-61